createdAt,value
2023-03-24T00:01:27.020Z,2.10
2023-03-24T00:04:14.358Z,2.00
2023-03-24T00:07:03.286Z,2.57
2023-03-24T00:09:50.599Z,2.17
2023-03-24T00:12:38.478Z,2.03
2023-03-24T00:15:26.693Z,2.20
2023-03-24T00:18:13.608Z,2.00
2023-03-24T00:21:00.959Z,1.87
2023-03-24T00:23:49.442Z,2.23
2023-03-24T00:26:37.571Z,2.50
2023-03-24T00:29:25.586Z,2.40
2023-03-24T00:32:12.888Z,2.73
2023-03-24T00:35:00.400Z,2.77
2023-03-24T00:37:47.707Z,2.43
2023-03-24T00:40:34.671Z,2.47
2023-03-24T00:43:22.030Z,2.93
2023-03-24T00:46:12.126Z,3.23
2023-03-24T00:49:11.919Z,2.73
2023-03-24T00:51:59.027Z,2.83
2023-03-24T00:54:50.535Z,2.87
2023-03-24T00:57:37.448Z,3.00
2023-03-24T01:00:26.469Z,3.00
2023-03-24T01:03:13.999Z,2.90
2023-03-24T01:06:04.375Z,2.90
2023-03-24T01:08:53.897Z,3.07
2023-03-24T01:11:41.762Z,2.67
2023-03-24T01:14:29.573Z,3.07
2023-03-24T01:17:16.596Z,2.90
2023-03-24T01:20:08.197Z,3.00
2023-03-24T01:22:55.155Z,3.00
2023-03-24T01:25:45.338Z,3.00
2023-03-24T01:28:32.428Z,3.00
2023-03-24T01:31:19.425Z,3.23
2023-03-24T01:34:06.411Z,2.93
2023-03-24T01:36:53.356Z,2.70
2023-03-24T01:39:40.325Z,2.77
2023-03-24T01:42:28.288Z,2.80
2023-03-24T01:46:12.278Z,2.70
2023-03-24T01:49:02.922Z,2.97
2023-03-24T01:51:57.535Z,2.80
2023-03-24T01:54:50.757Z,3.00
2023-03-24T01:57:42.773Z,2.73
2023-03-24T02:00:30.761Z,3.03
2023-03-24T02:03:40.142Z,2.40
2023-03-24T02:06:27.507Z,3.07
2023-03-24T02:09:16.793Z,2.90
2023-03-24T02:12:03.998Z,2.93
2023-03-24T02:14:53.319Z,2.50
2023-03-24T02:17:58.141Z,2.93
2023-03-24T02:21:21.376Z,2.40
2023-03-24T02:24:36.168Z,2.20
2023-03-24T02:27:48.788Z,2.73
2023-03-24T02:30:50.689Z,2.43
2023-03-24T02:34:07.057Z,2.50
2023-03-24T02:36:57.372Z,2.17
2023-03-24T02:40:11.526Z,2.70
2023-03-24T02:43:23.732Z,2.57
2023-03-24T02:46:24.820Z,2.90
2023-03-24T02:49:30.182Z,2.70
2023-03-24T02:52:28.636Z,2.20
2023-03-24T02:55:21.579Z,2.50
2023-03-24T02:58:15.964Z,2.37
2023-03-24T03:01:32.413Z,2.47
2023-03-24T03:04:41.661Z,2.50
2023-03-24T03:07:33.503Z,2.40
2023-03-24T03:10:25.266Z,2.57
2023-03-24T03:13:38.928Z,2.77
2023-03-24T03:16:38.353Z,3.00
2023-03-24T03:19:38.717Z,2.97
2023-03-24T03:22:31.409Z,2.83
2023-03-24T03:25:26.949Z,2.70
2023-03-24T03:28:21.861Z,3.27
2023-03-24T03:31:15.390Z,2.97
2023-03-24T03:34:28.491Z,2.90
2023-03-24T03:37:44.870Z,3.00
2023-03-24T03:40:55.790Z,3.07
2023-03-24T03:43:49.662Z,2.93
2023-03-24T03:46:36.883Z,2.90
2023-03-24T03:49:27.007Z,3.00
2023-03-24T03:52:14.896Z,3.10
2023-03-24T03:55:03.518Z,2.70
2023-03-24T03:57:50.950Z,3.27
2023-03-24T04:00:51.219Z,3.10
2023-03-24T04:04:26.134Z,2.67
2023-03-24T04:08:06.029Z,2.80
2023-03-24T04:11:44.691Z,3.03
2023-03-24T04:15:20.654Z,2.50
2023-03-24T04:18:31.657Z,2.93
2023-03-24T04:21:38.401Z,3.10
2023-03-24T04:24:32.771Z,3.00
2023-03-24T04:27:38.374Z,2.97
2023-03-24T04:31:07.312Z,2.97
2023-03-24T04:34:04.188Z,2.80
2023-03-24T04:36:57.009Z,3.20
2023-03-24T04:39:49.658Z,2.93
2023-03-24T04:42:48.544Z,2.83
2023-03-24T04:45:36.435Z,2.87
2023-03-24T04:48:26.394Z,2.70
2023-03-24T04:51:32.130Z,3.00
2023-03-24T04:54:34.795Z,3.10
2023-03-24T04:57:26.484Z,3.30
2023-03-24T05:00:20.543Z,3.07
2023-03-24T05:03:08.452Z,3.13
2023-03-24T05:05:55.485Z,3.00
2023-03-24T05:08:42.466Z,3.27
2023-03-24T05:11:29.488Z,3.10
2023-03-24T05:14:24.146Z,3.27
2023-03-24T05:17:11.377Z,2.93
2023-03-24T05:19:59.270Z,3.20
2023-03-24T05:22:46.741Z,2.50
2023-03-24T05:25:35.220Z,3.33
2023-03-24T05:28:22.186Z,2.80
2023-03-24T05:31:10.966Z,2.60
2023-03-24T05:34:08.373Z,2.57
2023-03-24T05:37:09.579Z,2.33
2023-03-24T05:39:56.601Z,3.10
2023-03-24T05:43:06.604Z,2.57
2023-03-24T05:46:00.000Z,2.60
2023-03-24T05:48:51.329Z,2.70
2023-03-24T05:51:40.158Z,2.60
2023-03-24T05:54:28.111Z,2.67
2023-03-24T05:57:23.916Z,2.67
2023-03-24T06:00:40.743Z,2.20
2023-03-24T06:03:34.736Z,2.23
2023-03-24T06:06:28.965Z,2.43
2023-03-24T06:09:19.483Z,2.20
2023-03-24T06:12:06.579Z,2.50
2023-03-24T06:15:00.844Z,2.07
2023-03-24T06:17:50.174Z,2.30
2023-03-24T06:20:46.504Z,2.27
2023-03-24T06:23:41.024Z,2.50
2023-03-24T06:26:30.767Z,2.23
2023-03-24T06:29:19.616Z,2.53
2023-03-24T06:32:07.941Z,2.77
2023-03-24T06:35:01.302Z,2.40
2023-03-24T06:37:55.461Z,2.90
2023-03-24T06:40:42.779Z,2.97
2023-03-24T06:43:30.568Z,2.90
2023-03-24T06:46:17.687Z,2.70
2023-03-24T06:49:06.339Z,2.70
2023-03-24T06:51:54.261Z,3.07
2023-03-24T06:54:42.168Z,2.80
2023-03-24T06:57:29.822Z,2.60
2023-03-24T07:00:37.913Z,2.60
2023-03-24T07:04:04.269Z,3.13
2023-03-24T07:10:14.603Z,2.97
2023-03-24T07:13:03.181Z,3.30
2023-03-24T07:15:51.938Z,3.13
2023-03-24T07:18:38.939Z,3.20
2023-03-24T07:21:26.926Z,3.00
2023-03-24T07:24:13.939Z,3.07
2023-03-24T07:27:13.314Z,3.50
2023-03-24T07:30:01.844Z,3.30
2023-03-24T07:33:01.929Z,3.27
2023-03-24T07:35:49.175Z,3.60
2023-03-24T07:38:37.491Z,3.13
2023-03-24T07:41:29.338Z,3.10
2023-03-24T07:44:20.318Z,3.37
2023-03-24T07:47:11.692Z,3.00
2023-03-24T07:49:58.809Z,3.00
2023-03-24T07:52:50.437Z,3.10
2023-03-24T07:55:40.385Z,3.33
2023-03-24T07:58:34.653Z,3.00
2023-03-24T08:01:33.000Z,3.03
2023-03-24T08:04:23.245Z,3.20
2023-03-24T08:07:29.797Z,3.10
2023-03-24T08:10:17.038Z,2.80
2023-03-24T08:13:04.341Z,2.63
2023-03-24T08:15:53.203Z,2.27
2023-03-24T08:18:40.207Z,2.10
2023-03-24T08:21:27.365Z,2.30
2023-03-24T08:24:14.357Z,2.20
2023-03-24T08:27:06.059Z,2.20
2023-03-24T08:29:53.041Z,2.17
2023-03-24T08:32:48.656Z,2.30
2023-03-24T08:35:38.807Z,2.40
2023-03-24T08:38:33.410Z,1.97
2023-03-24T08:41:20.939Z,2.20
2023-03-24T08:44:08.424Z,2.20
2023-03-24T08:46:55.376Z,2.40
2023-03-24T08:49:42.387Z,2.40
2023-03-24T08:52:29.387Z,2.50
2023-03-24T08:55:17.564Z,2.57
2023-03-24T08:58:04.711Z,2.50
2023-03-24T09:00:52.128Z,2.40
2023-03-24T09:03:39.883Z,2.20
2023-03-24T09:06:27.317Z,2.40
2023-03-24T09:09:14.252Z,2.20
2023-03-24T09:12:01.191Z,2.60
2023-03-24T09:14:49.609Z,2.73
2023-03-24T09:17:37.358Z,2.60
2023-03-24T09:20:24.413Z,2.20
2023-03-24T09:23:11.566Z,2.20
2023-03-24T09:25:59.165Z,2.13
2023-03-24T09:28:46.199Z,2.47
2023-03-24T09:31:33.327Z,2.50
2023-03-24T09:34:21.485Z,2.20
2023-03-24T09:37:08.660Z,2.57
2023-03-24T09:39:55.862Z,2.30
2023-03-24T09:42:43.547Z,2.60
2023-03-24T09:45:37.129Z,2.50
2023-03-24T09:48:47.057Z,2.30
2023-03-24T09:51:39.716Z,2.27
2023-03-24T09:54:28.852Z,2.80
2023-03-24T09:57:27.328Z,2.70
2023-03-24T10:00:28.039Z,2.40
2023-03-24T10:03:23.445Z,2.23
2023-03-24T10:06:21.793Z,2.03
2023-03-24T10:09:24.016Z,2.47
2023-03-24T10:12:26.081Z,2.00
2023-03-24T10:15:41.156Z,2.10
2023-03-24T10:18:49.112Z,2.10
2023-03-24T10:21:39.509Z,2.20
2023-03-24T10:25:09.768Z,2.00
2023-03-24T10:28:05.490Z,2.60
2023-03-24T10:30:54.066Z,1.80
2023-03-24T10:33:45.947Z,1.93
2023-03-24T10:36:33.081Z,2.37
2023-03-24T10:39:26.111Z,2.03
2023-03-24T10:42:26.491Z,2.30
2023-03-24T10:45:17.431Z,1.83
2023-03-24T10:48:04.985Z,2.10
2023-03-24T10:50:52.153Z,2.10
2023-03-24T10:53:39.596Z,2.37
2023-03-24T10:56:45.153Z,2.23
2023-03-24T10:59:54.191Z,2.20
2023-03-24T11:02:42.961Z,2.40
2023-03-24T11:05:33.704Z,2.40
2023-03-24T11:08:26.973Z,2.00
2023-03-24T11:11:29.260Z,2.60
2023-03-24T11:14:26.486Z,2.50
2023-03-24T11:17:15.901Z,1.97
2023-03-24T11:20:06.031Z,1.97
2023-03-24T11:23:02.352Z,1.60
2023-03-24T11:26:12.315Z,1.60
2023-03-24T11:29:03.725Z,1.43
2023-03-24T11:32:03.377Z,1.37
2023-03-24T11:35:01.382Z,1.50
2023-03-24T11:37:48.672Z,1.50
2023-03-24T11:40:35.708Z,1.50
2023-03-24T11:43:22.746Z,1.20
2023-03-24T11:46:17.236Z,1.40
2023-03-24T11:49:05.857Z,1.30
2023-03-24T11:51:55.418Z,1.10
2023-03-24T11:54:43.692Z,1.13
2023-03-24T11:57:52.067Z,1.43
2023-03-24T12:01:07.474Z,1.47
2023-03-24T12:04:16.685Z,1.00
2023-03-24T12:07:09.567Z,0.93
2023-03-24T12:10:50.655Z,1.20
2023-03-24T12:13:45.280Z,1.20
2023-03-24T12:17:09.063Z,1.30
2023-03-24T12:20:10.313Z,1.37
2023-03-24T12:23:13.040Z,1.43
2023-03-24T12:26:16.641Z,1.50
2023-03-24T12:29:37.561Z,1.63
2023-03-24T12:32:33.529Z,1.60
2023-03-24T12:35:39.554Z,1.50
2023-03-24T12:38:45.594Z,1.50
2023-03-24T12:41:53.869Z,1.83
2023-03-24T12:45:06.360Z,1.80
2023-03-24T12:48:33.547Z,1.50
2023-03-24T12:51:30.040Z,1.50
2023-03-24T12:54:34.342Z,1.50
2023-03-24T12:57:28.323Z,1.67
2023-03-24T13:00:31.038Z,1.50
2023-03-24T13:03:35.109Z,1.53
2023-03-24T13:06:33.590Z,1.37
2023-03-24T13:09:46.160Z,1.37
2023-03-24T13:12:44.344Z,1.30
2023-03-24T13:15:49.650Z,1.30
2023-03-24T13:18:47.146Z,0.97
2023-03-24T13:21:35.274Z,1.10
2023-03-24T13:24:23.134Z,0.90
2023-03-24T13:27:25.770Z,1.00
2023-03-24T13:30:31.447Z,0.90
2023-03-24T13:33:26.539Z,1.03
2023-03-24T13:36:40.161Z,1.03
2023-03-24T13:39:28.673Z,1.00
2023-03-24T13:42:34.890Z,1.27
2023-03-24T13:45:34.227Z,1.10
2023-03-24T13:48:31.696Z,1.00
2023-03-24T13:51:34.064Z,1.20
2023-03-24T13:54:25.030Z,1.30
2023-03-24T13:57:20.340Z,1.07
2023-03-24T14:00:12.025Z,1.23
2023-03-24T14:03:04.947Z,0.90
2023-03-24T14:05:59.438Z,1.00
2023-03-24T14:08:52.442Z,0.90
2023-03-24T14:11:45.596Z,0.93
2023-03-24T14:14:56.632Z,1.20
2023-03-24T14:17:47.149Z,1.10
2023-03-24T14:20:39.270Z,1.10
2023-03-24T14:23:43.633Z,0.80
2023-03-24T14:26:34.459Z,0.90
2023-03-24T14:29:38.605Z,0.87
2023-03-24T14:32:26.491Z,0.80
2023-03-24T14:35:27.548Z,0.80
2023-03-24T14:38:14.430Z,0.97
2023-03-24T14:41:17.124Z,0.80
2023-03-24T14:44:04.408Z,0.70
2023-03-24T14:46:51.976Z,0.60
2023-03-24T14:49:43.776Z,0.63
2023-03-24T14:52:49.697Z,0.70
2023-03-24T14:55:37.052Z,0.60
2023-03-24T14:58:36.540Z,0.50
2023-03-24T15:01:30.392Z,0.30
2023-03-24T15:04:17.460Z,0.53
2023-03-24T15:07:05.187Z,0.60
2023-03-24T15:09:52.267Z,0.60
2023-03-24T15:12:44.143Z,0.70
2023-03-24T15:15:31.453Z,0.70
2023-03-24T15:18:19.149Z,0.87
2023-03-24T15:21:22.002Z,0.60
2023-03-24T15:24:21.152Z,0.50
2023-03-24T15:27:08.020Z,0.60
2023-03-24T15:29:59.134Z,0.67
2023-03-24T15:32:47.598Z,0.70
2023-03-24T15:35:34.592Z,0.77
2023-03-24T15:38:31.527Z,0.50
2023-03-24T15:41:22.219Z,0.50
2023-03-24T15:44:09.183Z,0.70
2023-03-24T15:47:00.467Z,0.73
2023-03-24T15:49:56.952Z,0.60
2023-03-24T15:52:43.906Z,0.80
2023-03-24T15:55:36.613Z,0.60
2023-03-24T15:58:25.440Z,0.60
2023-03-24T16:01:17.274Z,0.50
2023-03-24T16:04:06.285Z,0.60
2023-03-24T16:06:54.431Z,0.50
2023-03-24T16:09:41.615Z,0.60
2023-03-24T16:12:28.552Z,0.50
2023-03-24T16:15:15.823Z,0.50
2023-03-24T16:18:05.279Z,0.50
2023-03-24T16:20:53.483Z,0.60
2023-03-24T16:23:42.372Z,0.40
2023-03-24T16:26:31.698Z,0.40
2023-03-24T16:29:21.648Z,0.50
2023-03-24T16:32:10.147Z,0.50
2023-03-24T16:34:57.090Z,0.43
2023-03-24T16:37:44.091Z,0.40
2023-03-24T16:40:41.216Z,0.40
2023-03-24T16:43:29.707Z,0.40
2023-03-24T16:46:22.194Z,0.50
2023-03-24T16:49:14.546Z,0.30
2023-03-24T16:52:01.523Z,0.50
2023-03-24T16:54:50.177Z,0.50
2023-03-24T16:57:38.330Z,0.43
2023-03-24T17:00:25.528Z,0.40
2023-03-24T17:03:13.794Z,0.40
2023-03-24T17:06:03.444Z,0.40
2023-03-24T17:08:50.966Z,0.43
2023-03-24T17:11:43.794Z,0.40
2023-03-24T17:14:31.062Z,0.40
2023-03-24T17:17:18.419Z,0.60
2023-03-24T17:20:06.062Z,0.40
2023-03-24T17:22:56.728Z,0.60
2023-03-24T17:25:43.979Z,0.60
2023-03-24T17:28:31.049Z,0.50
2023-03-24T17:31:18.363Z,0.50
2023-03-24T17:34:15.210Z,0.60
2023-03-24T17:37:08.241Z,0.60
2023-03-24T17:39:56.922Z,0.70
2023-03-24T17:42:46.623Z,0.70
2023-03-24T17:45:33.785Z,0.50
2023-03-24T17:48:20.746Z,0.80
2023-03-24T17:51:07.890Z,1.10
2023-03-24T17:53:54.845Z,1.13
2023-03-24T17:56:42.118Z,0.70
2023-03-24T17:59:29.092Z,1.20
2023-03-24T18:02:17.734Z,0.97
2023-03-24T18:05:05.759Z,1.20
2023-03-24T18:07:52.723Z,1.13
2023-03-24T18:10:39.775Z,1.53
2023-03-24T18:13:28.695Z,1.47
2023-03-24T18:19:06.717Z,2.73
2023-03-24T18:21:54.073Z,1.60
2023-03-24T18:24:41.026Z,1.00
2023-03-24T18:27:28.080Z,0.70
2023-03-24T18:30:16.677Z,1.37
2023-03-24T18:33:03.832Z,1.00
2023-03-24T18:35:52.829Z,1.17
2023-03-24T18:38:39.870Z,0.93
2023-03-24T18:41:29.860Z,0.80
2023-03-24T18:44:16.960Z,0.73
2023-03-24T18:47:03.938Z,0.90
2023-03-24T18:49:51.045Z,0.70
2023-03-24T18:52:38.327Z,0.80
2023-03-24T18:55:26.638Z,0.97
2023-03-24T18:58:15.407Z,0.70
2023-03-24T19:01:09.741Z,0.70
2023-03-24T19:03:56.729Z,0.70
2023-03-24T19:06:44.316Z,0.70
2023-03-24T19:09:31.351Z,0.80
2023-03-24T19:12:18.448Z,0.83
2023-03-24T19:15:05.953Z,0.67
2023-03-24T19:17:52.893Z,0.60
2023-03-24T19:20:41.984Z,0.80
2023-03-24T19:23:29.547Z,0.70
2023-03-24T19:26:17.700Z,0.63
2023-03-24T19:29:04.639Z,0.80
2023-03-24T19:31:51.588Z,0.70
2023-03-24T19:34:38.699Z,0.80
2023-03-24T19:37:27.005Z,0.90
2023-03-24T19:40:15.571Z,0.80
2023-03-24T19:43:02.576Z,0.77
2023-03-24T19:45:54.848Z,0.67
2023-03-24T19:48:41.800Z,0.70
2023-03-24T19:51:28.838Z,0.70
2023-03-24T19:54:15.764Z,0.70
2023-03-24T19:57:03.578Z,0.80
2023-03-24T19:59:51.019Z,0.70
2023-03-24T20:02:38.310Z,0.73
2023-03-24T20:05:25.488Z,1.20
2023-03-24T20:08:12.500Z,0.77
2023-03-24T20:10:59.494Z,0.90
2023-03-24T20:13:46.736Z,0.77
2023-03-24T20:16:33.816Z,0.83
2023-03-24T20:19:21.037Z,1.00
2023-03-24T20:22:08.047Z,0.80
2023-03-24T20:24:55.026Z,0.93
2023-03-24T20:27:45.135Z,0.90
2023-03-24T20:30:32.676Z,0.90
2023-03-24T20:33:19.806Z,0.90
2023-03-24T20:36:07.357Z,0.87
2023-03-24T20:38:54.381Z,0.93
2023-03-24T20:41:41.395Z,0.90
2023-03-24T20:44:29.254Z,1.10
2023-03-24T20:47:16.527Z,0.90
2023-03-24T20:50:04.516Z,0.90
2023-03-24T20:52:51.512Z,1.23
2023-03-24T20:55:38.586Z,1.10
2023-03-24T20:58:27.377Z,0.97
2023-03-24T21:01:24.201Z,0.90
2023-03-24T21:04:11.395Z,1.20
2023-03-24T21:06:58.504Z,1.00
2023-03-24T21:09:45.527Z,1.03
2023-03-24T21:12:32.877Z,1.00
2023-03-24T21:15:19.863Z,1.07
2023-03-24T21:18:06.858Z,0.90
2023-03-24T21:20:56.242Z,1.00
2023-03-24T21:23:43.356Z,1.23
2023-03-24T21:26:30.536Z,1.03
2023-03-24T21:29:17.965Z,0.70
2023-03-24T21:32:05.096Z,1.00
2023-03-24T21:34:52.125Z,1.07
2023-03-24T21:37:45.718Z,0.90
2023-03-24T21:40:32.693Z,1.03
2023-03-24T21:43:19.653Z,0.90
2023-03-24T21:46:06.678Z,1.00
2023-03-24T21:48:59.336Z,1.00
2023-03-24T21:51:46.758Z,0.70
2023-03-24T21:54:34.130Z,0.90
2023-03-24T21:57:21.122Z,0.90
2023-03-24T22:00:14.729Z,0.70
2023-03-24T22:03:02.157Z,0.90
2023-03-24T22:05:49.257Z,0.90
2023-03-24T22:08:38.683Z,1.00
2023-03-24T22:11:26.043Z,1.10
2023-03-24T22:14:13.105Z,1.00
2023-03-24T22:17:00.182Z,1.00
2023-03-24T22:19:47.207Z,1.10
2023-03-24T22:22:34.273Z,1.13
2023-03-24T22:25:21.302Z,1.00
2023-03-24T22:28:08.244Z,0.90
2023-03-24T22:31:09.274Z,1.10
2023-03-24T22:33:56.247Z,0.90
2023-03-24T22:36:43.287Z,0.73
2023-03-24T22:39:30.251Z,1.00
2023-03-24T22:42:17.188Z,1.00
2023-03-24T22:45:04.980Z,0.90
2023-03-24T22:47:51.931Z,0.80
2023-03-24T22:50:42.140Z,1.20
2023-03-24T22:53:29.260Z,0.90
2023-03-24T22:56:16.461Z,0.90
2023-03-24T22:59:03.434Z,1.00
2023-03-24T23:01:59.111Z,1.10
2023-03-24T23:04:55.596Z,1.10
2023-03-24T23:07:44.013Z,1.00
2023-03-24T23:10:30.934Z,1.03
2023-03-24T23:13:17.934Z,1.10
2023-03-24T23:16:05.590Z,1.00
2023-03-24T23:18:52.646Z,0.97
2023-03-24T23:21:39.667Z,1.07
2023-03-24T23:24:27.299Z,0.87
2023-03-24T23:27:15.936Z,1.00
2023-03-24T23:30:07.044Z,0.90
2023-03-24T23:32:54.062Z,1.00
2023-03-24T23:35:41.719Z,0.90
2023-03-24T23:38:28.793Z,0.90
2023-03-24T23:41:15.978Z,1.03
2023-03-24T23:44:03.107Z,0.70
2023-03-24T23:46:50.264Z,0.90
2023-03-24T23:49:37.210Z,0.83
2023-03-24T23:52:24.560Z,0.80
2023-03-24T23:55:13.116Z,1.00
2023-03-24T23:58:00.178Z,1.20
